Time;durP1;ratioP1;P1;durP2;ratioP2;P2;SDS_P1;SDS_P2;PMS_P1;PMS_P2;Temp;Humidity;BMP_temperature;BMP_pressure;BME280_temperature;BME280_humidity;BME280_pressure;Samples;Min_cycle;Max_cycle;Signal;HPM_P1;HPM_P2
2023/09/26 00:00:08;;;;;;;8.00;4.55;;;;;;;14.39;100.00;102209.97;10457865;28;20045;-77
2023/09/26 00:05:09;;;;;;;6.65;4.15;;;;;;;14.19;100.00;102205.69;10467426;28;20047;-78
2023/09/26 00:10:12;;;;;;;7.18;4.55;;;;;;;14.06;100.00;102222.59;10481557;28;20036;-78
2023/09/26 00:15:12;;;;;;;9.73;5.15;;;;;;;13.93;100.00;102221.78;10467153;28;20056;-77
2023/09/26 00:20:17;;;;;;;7.22;4.47;;;;;;;13.86;100.00;102217.47;10464777;28;20045;-77
2023/09/26 00:25:18;;;;;;;6.85;4.88;;;;;;;13.79;100.00;102223.13;10481017;28;20335;-78
2023/09/26 00:30:20;;;;;;;6.78;4.85;;;;;;;13.72;100.00;102222.41;10475760;28;20037;-77
2023/09/26 00:35:20;;;;;;;7.85;5.05;;;;;;;13.62;100.00;102230.47;10478998;28;20043;-77
2023/09/26 00:40:21;;;;;;;8.45;5.53;;;;;;;13.48;100.00;102218.84;10474535;28;20053;-77
2023/09/26 00:45:22;;;;;;;9.30;5.45;;;;;;;13.38;100.00;102222.19;10458696;28;20049;-78
2023/09/26 00:50:22;;;;;;;9.55;5.28;;;;;;;13.22;100.00;102223.72;10472850;28;20072;-77
2023/09/26 00:55:23;;;;;;;8.77;5.22;;;;;;;13.04;100.00;102224.69;10474767;28;20070;-78
2023/09/26 01:00:24;;;;;;;8.30;5.78;;;;;;;12.88;100.00;102217.06;10473284;28;20049;-77
2023/09/26 01:05:25;;;;;;;8.48;5.85;;;;;;;12.77;100.00;102228.91;10471169;28;20041;-77
2023/09/26 01:10:25;;;;;;;8.32;5.65;;;;;;;12.60;100.00;102218.53;10477567;28;20408;-77
2023/09/26 01:15:37;;;;;;;10.93;7.00;;;;;;;12.49;100.00;102220.19;10475109;28;20048;-77
2023/09/26 01:20:39;;;;;;;10.70;6.20;;;;;;;12.24;100.00;102201.00;10459096;28;20041;-77
2023/09/26 01:25:40;;;;;;;9.90;6.78;;;;;;;12.22;100.00;102219.72;10459391;28;20040;-77
2023/09/26 01:30:40;;;;;;;9.18;6.35;;;;;;;12.02;100.00;102197.03;10474846;28;20052;-77
2023/09/26 01:35:41;;;;;;;10.63;6.38;;;;;;;12.02;100.00;102208.91;10478302;28;20029;-77
2023/09/26 01:40:41;;;;;;;11.38;7.20;;;;;;;11.99;100.00;102203.00;10473947;28;20048;-77
2023/09/26 01:45:42;;;;;;;13.65;7.90;;;;;;;11.84;100.00;102173.00;10478215;28;20044;-78
2023/09/26 01:50:42;;;;;;;11.48;6.88;;;;;;;11.85;100.00;102192.09;10477468;28;20033;-78
2023/09/26 01:55:43;;;;;;;10.93;7.22;;;;;;;11.78;100.00;102199.63;10473572;28;20096;-78
2023/09/26 02:00:43;;;;;;;10.23;6.82;;;;;;;11.71;100.00;102183.13;10479039;28;20040;-77
2023/09/26 02:05:44;;;;;;;11.45;7.07;;;;;;;11.76;100.00;102182.47;10472877;28;20087;-76
2023/09/26 02:10:44;;;;;;;10.88;7.57;;;;;;;11.74;100.00;102195.66;10462008;28;20055;-75
2023/09/26 02:15:45;;;;;;;9.38;6.97;;;;;;;11.50;100.00;102156.03;10474970;28;20052;-78
2023/09/26 02:20:45;;;;;;;12.52;6.85;;;;;;;11.61;100.00;102191.09;10476519;28;20074;-77
2023/09/26 02:25:51;;;;;;;9.93;7.35;;;;;;;11.45;100.00;102176.03;10475191;28;20032;-77
2023/09/26 02:30:51;;;;;;;13.43;7.30;;;;;;;11.49;100.00;102188.28;10478068;28;20067;-77
2023/09/26 02:35:52;;;;;;;12.45;7.78;;;;;;;11.42;100.00;102187.50;10480209;28;20583;-76
2023/09/26 02:40:52;;;;;;;13.00;8.02;;;;;;;11.34;100.00;102184.19;10476502;28;20049;-76
2023/09/26 02:45:53;;;;;;;10.93;7.32;;;;;;;11.13;100.00;102166.16;10474566;28;20113;-78
2023/09/26 02:51:02;;;;;;;10.65;7.40;;;;;;;10.91;100.00;102136.25;10479103;28;20490;-76
2023/09/26 02:56:03;;;;;;;12.40;8.38;;;;;;;11.17;100.00;102172.91;10486241;28;20105;-77
2023/09/26 03:01:06;;;;;;;17.27;9.20;;;;;;;11.14;100.00;102173.34;10479103;28;20117;-77
2023/09/26 03:06:06;;;;;;;13.05;8.73;;;;;;;11.05;100.00;102170.88;10486119;28;20119;-76
2023/09/26 03:11:07;;;;;;;12.30;8.65;;;;;;;11.04;100.00;102184.91;10475333;28;20068;-77
2023/09/26 03:16:09;;;;;;;12.80;9.10;;;;;;;11.00;100.00;102178.16;10482061;28;20041;-77
2023/09/26 03:21:11;;;;;;;15.73;8.82;;;;;;;10.98;100.00;102161.84;10478485;28;20067;-77
2023/09/26 03:26:13;;;;;;;11.52;9.00;;;;;;;10.90;100.00;102151.94;10479341;28;21004;-76
2023/09/26 03:31:13;;;;;;;12.82;9.50;;;;;;;10.89;100.00;102154.91;10461600;28;20067;-77
2023/09/26 03:36:14;;;;;;;13.20;8.68;;;;;;;10.83;100.00;102153.91;10461512;28;20044;-76
2023/09/26 03:41:14;;;;;;;12.63;9.10;;;;;;;10.80;100.00;102156.28;10480397;28;20033;-76
2023/09/26 03:46:15;;;;;;;12.45;8.70;;;;;;;10.77;100.00;102134.66;10474153;28;20041;-75
2023/09/26 03:51:15;;;;;;;13.02;9.35;;;;;;;10.77;100.00;102134.66;10478825;28;20039;-76
2023/09/26 03:56:15;;;;;;;14.38;9.32;;;;;;;10.61;100.00;102131.41;10462767;28;20435;-77
2023/09/26 04:01:16;;;;;;;15.20;9.50;;;;;;;10.54;100.00;102130.59;10459167;28;20041;-76
2023/09/26 04:06:17;;;;;;;13.63;9.98;;;;;;;10.53;100.00;102137.19;10482581;28;20044;-70
2023/09/26 04:11:17;;;;;;;13.40;9.35;;;;;;;10.47;100.00;102129.81;10456331;28;20052;-77
2023/09/26 04:16:18;;;;;;;18.10;11.20;;;;;;;10.42;100.00;102126.91;10470013;28;20037;-76
2023/09/26 04:21:18;;;;;;;14.05;10.35;;;;;;;10.44;100.00;102119.28;10479770;28;20071;-76
2023/09/26 04:26:19;;;;;;;15.05;10.00;;;;;;;10.08;100.00;102091.28;10473687;28;20047;-77
2023/09/26 04:31:19;;;;;;;16.65;10.27;;;;;;;10.29;100.00;102106.66;10481321;28;20040;-76
2023/09/26 04:36:20;;;;;;;14.05;10.02;;;;;;;10.29;100.00;102109.41;10476772;28;20033;-76
2023/09/26 04:41:20;;;;;;;13.38;10.00;;;;;;;10.29;100.00;102109.41;10465092;28;20041;-76
2023/09/26 04:46:21;;;;;;;15.88;9.77;;;;;;;10.17;100.00;102097.41;10475915;28;20040;-76
2023/09/26 04:51:21;;;;;;;13.95;9.60;;;;;;;10.22;100.00;102097.56;10476179;28;20044;-75
2023/09/26 04:56:22;;;;;;;12.05;8.88;;;;;;;10.29;100.00;102105.78;10478083;28;20072;-76
2023/09/26 05:01:24;;;;;;;19.67;9.57;;;;;;;10.30;100.00;102116.59;10465960;28;20037;-76
2023/09/26 05:06:25;;;;;;;14.60;10.57;;;;;;;10.32;100.00;102115.53;10478923;28;20045;-76
2023/09/26 05:11:27;;;;;;;17.30;11.55;;;;;;;10.39;100.00;102133.69;10474343;28;20049;-76
2023/09/26 05:16:28;;;;;;;14.15;10.10;;;;;;;10.44;100.00;102125.63;10469287;28;20067;-77
2023/09/26 05:21:28;;;;;;;15.23;11.05;;;;;;;10.47;100.00;102135.34;10479017;28;20568;-76
2023/09/26 05:26:29;;;;;;;16.40;11.25;;;;;;;10.46;100.00;102123.47;10473350;28;20045;-76
2023/09/26 05:31:30;;;;;;;15.43;11.32;;;;;;;10.46;100.00;102136.41;10479131;28;20465;-76
2023/09/26 05:36:33;;;;;;;16.83;10.73;;;;;;;10.44;100.00;102144.06;10473814;28;20040;-76
2023/09/26 05:41:33;;;;;;;16.15;10.90;;;;;;;10.47;100.00;102138.09;10477565;28;20044;-76
2023/09/26 05:46:33;;;;;;;12.93;9.82;;;;;;;10.58;100.00;102129.09;10463353;28;20069;-73
2023/09/26 05:51:34;;;;;;;21.02;11.13;;;;;;;10.64;100.00;102130.13;10477265;28;20040;-76
2023/09/26 05:56:34;;;;;;;14.93;10.40;;;;;;;10.69;100.00;102139.41;10473810;28;20037;-76
2023/09/26 06:01:35;;;;;;;14.18;9.98;;;;;;;10.74;100.00;102124.13;10458315;28;20120;-75
2023/09/26 06:06:35;;;;;;;12.98;9.60;;;;;;;10.85;100.00;102115.09;10461883;28;20037;-68
2023/09/26 06:11:36;;;;;;;14.68;10.57;;;;;;;10.77;100.00;102085.09;10483553;28;20051;-76
2023/09/26 06:16:36;;;;;;;14.32;10.07;;;;;;;11.09;100.00;102108.72;10476273;28;20079;-76
2023/09/26 06:21:37;;;;;;;14.65;10.25;;;;;;;11.29;100.00;102129.75;10480090;28;20041;-76
2023/09/26 06:26:37;;;;;;;14.57;10.05;;;;;;;11.47;100.00;102112.34;10483944;28;20036;-76
2023/09/26 06:31:40;;;;;;;14.25;11.07;;;;;;;10.80;100.00;101985.47;10480261;28;20040;-74
2023/09/26 06:36:42;;;;;;;14.57;9.57;;;;;;;11.81;100.00;102113.63;10484561;28;20484;-76
2023/09/26 06:41:43;;;;;;;15.40;10.90;;;;;;;11.98;100.00;102118.53;10479191;28;20404;-76
2023/09/26 06:46:43;;;;;;;22.80;9.98;;;;;;;12.09;100.00;102120.47;10473413;28;20043;-76
2023/09/26 06:51:44;;;;;;;14.70;10.30;;;;;;;12.20;100.00;102121.63;10477783;28;20387;-76
2023/09/26 06:56:44;;;;;;;15.50;10.40;;;;;;;12.25;100.00;102132.78;10485404;28;20033;-75
2023/09/26 07:01:44;;;;;;;12.35;9.00;;;;;;;12.28;100.00;102129.59;10484302;28;20041;-76
2023/09/26 07:06:45;;;;;;;14.68;9.43;;;;;;;12.46;100.00;102132.28;10484724;28;20052;-77
2023/09/26 07:11:47;;;;;;;12.88;9.35;;;;;;;12.66;100.00;102140.22;10481907;28;20040;-76
2023/09/26 07:16:48;;;;;;;13.23;8.52;;;;;;;12.87;100.00;102133.28;10478134;28;20037;-76
2023/09/26 07:21:48;;;;;;;13.52;8.85;;;;;;;13.06;100.00;102147.88;10480554;28;20033;-76
2023/09/26 07:26:50;;;;;;;13.63;8.63;;;;;;;13.26;100.00;102133.66;10481298;28;20106;-75
2023/09/26 07:31:52;;;;;;;11.30;8.85;;;;;;;13.39;100.00;102135.34;10479708;28;20073;-76
2023/09/26 07:36:52;;;;;;;14.95;9.13;;;;;;;13.59;100.00;102131.38;10480035;28;20116;-77
2023/09/26 07:41:52;;;;;;;15.30;8.38;;;;;;;13.84;100.00;102133.81;10456122;28;20040;-76
2023/09/26 07:46:53;;;;;;;12.90;8.63;;;;;;;14.09;100.00;102137.09;10458459;28;20408;-77
2023/09/26 07:51:53;;;;;;;31.88;11.02;;;;;;;14.36;100.00;102130.09;10448212;28;20440;-76
2023/09/26 07:56:54;;;;;;;14.43;8.43;;;;;;;14.56;100.00;102119.41;10443656;28;20049;-77
2023/09/26 08:01:54;;;;;;;13.43;7.80;;;;;;;14.66;100.00;102114.06;10453872;28;20030;-76
2023/09/26 08:06:55;;;;;;;11.52;7.90;;;;;;;14.68;100.00;102106.31;10452595;28;20045;-76
2023/09/26 08:11:55;;;;;;;10.55;8.20;;;;;;;14.46;100.00;102072.09;10449482;28;20052;-77
2023/09/26 08:16:56;;;;;;;9.00;7.22;;;;;;;14.79;100.00;102106.50;10442168;28;20044;-77
2023/09/26 08:21:56;;;;;;;14.38;7.78;;;;;;;15.06;100.00;102106.63;10473817;28;20040;-77
2023/09/26 08:26:57;;;;;;;12.40;7.78;;;;;;;15.32;100.00;102114.22;10477742;28;20080;-77
2023/09/26 08:31:57;;;;;;;13.48;7.18;;;;;;;15.63;100.00;102122.16;10478440;28;20051;-77
2023/09/26 08:36:58;;;;;;;12.20;7.35;;;;;;;15.85;100.00;102114.66;10478754;28;20041;-76
2023/09/26 08:41:59;;;;;;;10.90;7.88;;;;;;;16.16;100.00;102109.44;10474704;28;20519;-77
2023/09/26 08:47:01;;;;;;;8.57;6.28;;;;;;;16.40;100.00;102090.50;10442453;28;20127;-77
2023/09/26 08:52:04;;;;;;;9.48;6.28;;;;;;;16.59;100.00;102088.16;10442232;28;20033;-76
2023/09/26 08:57:05;;;;;;;12.32;6.78;;;;;;;16.80;100.00;102086.38;10477758;28;20557;-76
2023/09/26 09:02:05;;;;;;;10.35;5.65;;;;;;;16.98;100.00;102074.03;10474903;28;20047;-76
2023/09/26 09:07:06;;;;;;;10.30;6.70;;;;;;;16.96;100.00;102070.66;10479888;28;20040;-77
2023/09/26 09:12:21;;;;;;;10.27;6.72;;;;;;;17.01;100.00;102067.94;10474168;28;20151;-78
2023/09/26 09:17:22;;;;;;;13.23;7.50;;;;;;;17.13;100.00;102074.09;10466448;28;20075;-77
2023/09/26 09:22:23;;;;;;;11.73;7.22;;;;;;;17.36;100.00;102069.22;10468652;28;20480;-77
2023/09/26 09:27:30;;;;;;;9.23;6.18;;;;;;;17.40;100.00;102053.66;10450394;28;20615;-76
2023/09/26 09:32:30;;;;;;;8.95;6.40;;;;;;;17.51;100.00;102049.81;10444179;28;20080;-76
2023/09/26 09:37:31;;;;;;;12.02;7.60;;;;;;;17.85;100.00;102049.38;10443960;28;20083;-76
2023/09/26 09:42:31;;;;;;;10.18;6.78;;;;;;;18.11;100.00;102043.88;10457453;28;20077;-78
2023/09/26 09:47:32;;;;;;;10.00;6.15;;;;;;;18.34;100.00;102039.69;10484101;28;20044;-76
2023/09/26 09:52:32;;;;;;;8.43;6.35;;;;;;;18.49;100.00;102041.66;10463061;28;20080;-78
2023/09/26 09:57:33;;;;;;;11.65;6.38;;;;;;;18.81;100.00;102044.16;10425375;28;20129;-79
2023/09/26 10:02:34;;;;;;;9.88;6.10;;;;;;;19.26;100.00;102027.56;10472878;28;20041;-79
2023/09/26 10:07:34;;;;;;;8.32;6.15;;;;;;;19.56;100.00;102026.59;10484133;28;20532;-76
2023/09/26 10:12:38;;;;;;;9.38;5.68;;;;;;;19.47;100.00;102015.19;10464529;28;20037;-76
2023/09/26 10:17:40;;;;;;;9.07;5.97;;;;;;;19.41;100.00;102013.53;10477432;28;20045;-78
2023/09/26 10:22:41;;;;;;;13.65;4.97;;;;;;;19.56;100.00;102013.47;10484335;28;20382;-79
2023/09/26 10:27:46;;;;;;;12.52;6.03;;;;;;;19.87;100.00;102010.50;10482619;28;20041;-77
2023/09/26 10:32:47;;;;;;;8.85;4.93;;;;;;;19.90;100.00;101998.75;10483509;28;20032;-78
2023/09/26 10:37:55;;;;;;;9.55;4.95;;;;;;;19.93;100.00;101975.81;10480457;28;20048;-80
2023/09/26 10:42:55;;;;;;;7.45;5.18;;;;;;;19.81;100.00;101964.16;10479610;28;20496;-80
2023/09/26 10:47:56;;;;;;;11.27;4.75;;;;;;;19.99;100.00;101992.53;10475471;28;20037;-79
2023/09/26 10:52:56;;;;;;;8.32;4.60;;;;;;;20.17;100.00;101972.25;10475215;28;20048;-78
2023/09/26 10:57:56;;;;;;;8.15;4.95;;;;;;;20.07;100.00;101950.84;10442007;28;20041;-79
2023/09/26 11:02:57;;;;;;;6.85;4.30;;;;;;;20.51;100.00;101963.00;10451625;28;20041;-78
2023/09/26 11:07:58;;;;;;;6.43;4.47;;;;;;;20.74;100.00;101965.03;10452055;28;20045;-77
2023/09/26 11:12:58;;;;;;;8.65;4.85;;;;;;;20.71;100.00;101973.16;10450696;28;20068;-78
2023/09/26 11:17:59;;;;;;;6.18;3.90;;;;;;;20.81;100.00;101967.47;10455661;28;20045;-66
2023/09/26 11:22:59;;;;;;;4.20;3.72;;;;;;;20.99;100.00;101968.66;10455476;28;20096;-78
2023/09/26 11:28:00;;;;;;;6.20;4.03;;;;;;;21.22;100.00;101949.34;10482158;28;20087;-84
2023/09/26 11:33:01;;;;;;;6.10;3.53;;;;;;;21.37;100.00;101943.50;10478896;28;20107;-76
2023/09/26 11:38:01;;;;;;;5.80;3.40;;;;;;;21.44;100.00;101949.63;10473458;28;20041;-77
2023/09/26 11:43:03;;;;;;;5.10;3.47;;;;;;;21.39;100.00;101937.63;10432199;28;20040;-77
2023/09/26 11:48:05;;;;;;;3.65;3.15;;;;;;;21.33;100.00;101936.84;10480390;28;20044;-76
2023/09/26 11:53:07;;;;;;;4.28;2.95;;;;;;;21.33;100.00;101931.25;10476103;28;20047;-80
2023/09/26 11:58:07;;;;;;;7.57;3.28;;;;;;;21.21;100.00;101936.44;10482524;28;20037;-77
2023/09/26 12:03:08;;;;;;;7.70;3.92;;;;;;;21.35;100.00;101937.38;10477319;28;20043;-77
2023/09/26 12:08:08;;;;;;;6.28;3.60;;;;;;;21.41;100.00;101938.97;10464476;28;20053;-77
2023/09/26 12:13:09;;;;;;;4.80;3.55;;;;;;;21.45;100.00;101937.25;10482423;28;20044;-77
2023/09/26 12:18:10;;;;;;;4.53;3.53;;;;;;;21.56;100.00;101913.56;10471147;28;20128;-78
2023/09/26 12:23:13;;;;;;;6.47;3.28;;;;;;;21.74;100.00;101916.66;10482404;28;20033;-76
2023/09/26 12:28:13;;;;;;;7.63;3.22;;;;;;;21.69;100.00;101909.16;10476194;28;20047;-76
2023/09/26 12:33:14;;;;;;;4.50;3.05;;;;;;;21.59;100.00;101895.31;10480902;28;20039;-79
2023/09/26 12:38:14;;;;;;;7.63;3.55;;;;;;;21.48;100.00;101905.84;10457458;28;20036;-77
2023/09/26 12:43:14;;;;;;;4.40;2.67;;;;;;;21.49;100.00;101903.88;10464021;28;20380;-77
2023/09/26 12:48:15;;;;;;;4.82;2.65;;;;;;;21.47;100.00;101898.56;10476965;28;20447;-80
2023/09/26 12:53:15;;;;;;;5.93;2.75;;;;;;;21.82;100.00;101913.16;10477791;28;20456;-78
2023/09/26 12:58:16;;;;;;;3.50;2.25;;;;;;;22.03;100.00;101912.81;10477952;28;20083;-78
2023/09/26 13:03:16;;;;;;;4.97;2.53;;;;;;;22.16;100.00;101901.66;10473253;28;20044;-76
2023/09/26 13:08:17;;;;;;;4.25;2.60;;;;;;;22.13;100.00;101901.41;10464565;28;20037;-78
2023/09/26 13:13:18;;;;;;;5.22;2.90;;;;;;;21.96;100.00;101890.78;10461901;28;20057;-78
2023/09/26 13:18:18;;;;;;;5.75;2.10;;;;;;;21.95;100.00;101901.19;10470543;28;20040;-77
2023/09/26 13:23:19;;;;;;;4.40;2.22;;;;;;;21.73;100.00;101898.19;10473132;28;20041;-77
2023/09/26 13:28:19;;;;;;;2.95;2.10;;;;;;;21.50;100.00;101899.97;10480308;28;20045;-76
2023/09/26 13:33:20;;;;;;;4.25;2.35;;;;;;;21.74;100.00;101894.22;10471946;28;20048;-77
2023/09/26 13:38:21;;;;;;;4.05;2.75;;;;;;;22.77;100.00;101877.19;10469798;28;20045;-72
2023/09/26 13:43:22;;;;;;;4.43;2.55;;;;;;;22.94;100.00;101875.72;10462873;28;20049;-77
2023/09/26 13:48:22;;;;;;;4.43;2.40;;;;;;;22.69;100.00;101841.41;10474362;28;20512;-78
2023/09/26 13:53:24;;;;;;;3.42;2.05;;;;;;;23.47;100.00;101877.06;10477700;28;20139;-75
2023/09/26 13:58:24;;;;;;;5.95;2.58;;;;;;;24.87;100.00;101850.56;10452563;28;20044;-76
2023/09/26 14:03:25;;;;;;;3.67;2.10;;;;;;;26.09;100.00;101844.91;10473440;28;20041;-77
2023/09/26 14:08:26;;;;;;;4.20;2.20;;;;;;;26.58;100.00;101845.38;10464551;28;20047;-76
2023/09/26 14:13:26;;;;;;;5.07;2.03;;;;;;;27.11;100.00;101846.69;10476512;28;20044;-76
2023/09/26 14:18:27;;;;;;;4.28;2.10;;;;;;;27.80;96.43;101835.13;10470247;28;20036;-78
2023/09/26 14:23:27;;;;;;;2.97;2.05;;;;;;;27.92;92.42;101824.69;10460826;28;20032;-76
2023/09/26 14:28:28;;;;;;;4.32;1.83;;;;;;;27.34;93.23;101821.75;10477582;28;20041;-78
2023/09/26 14:33:28;;;;;;;4.40;2.35;;;;;;;25.71;94.65;101817.41;10486938;28;20056;-76
2023/09/26 14:38:29;;;;;;;2.85;1.80;;;;;;;24.10;100.00;101839.50;10452310;28;20531;-76
2023/09/26 14:43:29;;;;;;;2.92;1.98;;;;;;;23.27;100.00;101851.09;10453646;28;20045;-77
2023/09/26 14:48:31;;;;;;;5.30;1.80;;;;;;;22.66;100.00;101861.72;10451655;28;20042;-77
2023/09/26 14:53:31;;;;;;;2.95;1.88;;;;;;;22.24;100.00;101877.69;10447347;28;20037;-77
2023/09/26 14:58:32;;;;;;;2.75;1.40;;;;;;;22.08;100.00;101877.13;10458061;28;20032;-76
2023/09/26 15:03:32;;;;;;;3.53;1.90;;;;;;;21.99;100.00;101875.31;10455266;28;20073;-77
2023/09/26 15:08:33;;;;;;;3.20;1.58;;;;;;;21.85;100.00;101872.47;10450553;28;20032;-77
2023/09/26 15:13:34;;;;;;;2.75;1.60;;;;;;;21.65;100.00;101880.09;10461190;28;20047;-76
2023/09/26 15:18:34;;;;;;;6.78;2.63;;;;;;;21.30;100.00;101868.28;10450936;28;20033;-76
2023/09/26 15:23:35;;;;;;;12.10;3.78;;;;;;;21.16;100.00;101878.56;10450400;28;20033;-76
2023/09/26 15:28:35;;;;;;;4.75;2.35;;;;;;;20.97;100.00;101884.16;10450538;28;20065;-76
2023/09/26 15:33:36;;;;;;;7.43;3.42;;;;;;;20.82;100.00;101896.38;10452492;28;20049;-76
2023/09/26 15:38:36;;;;;;;7.32;3.70;;;;;;;20.68;100.00;101901.84;10451318;28;20409;-76
2023/09/26 15:43:37;;;;;;;7.43;4.13;;;;;;;20.49;100.00;101895.34;10449510;28;20402;-76
2023/09/26 15:48:37;;;;;;;7.07;3.40;;;;;;;19.99;100.00;101827.63;10455666;28;20064;-76
2023/09/26 15:53:39;;;;;;;12.77;4.85;;;;;;;20.16;100.00;101875.53;10432417;28;20650;-76
2023/09/26 15:58:40;;;;;;;17.30;6.60;;;;;;;20.02;100.00;101877.38;10450115;28;20033;-76
2023/09/26 16:03:40;;;;;;;6.03;3.40;;;;;;;19.87;100.00;101881.97;10445563;28;20038;-76
2023/09/26 16:08:45;;;;;;;5.55;3.38;;;;;;;19.70;100.00;101874.00;10444787;28;20042;-80
2023/09/26 16:13:45;;;;;;;4.38;3.53;;;;;;;19.50;100.00;101883.34;10451933;28;20029;-76
2023/09/26 16:18:46;;;;;;;4.93;3.20;;;;;;;19.38;100.00;101901.59;10450218;28;20323;-76
2023/09/26 16:23:46;;;;;;;6.03;3.90;;;;;;;19.27;100.00;101889.66;10453423;28;20059;-76
2023/09/26 16:28:47;;;;;;;4.75;3.28;;;;;;;18.93;100.00;101840.13;10459856;28;20032;-76
2023/09/26 16:33:47;;;;;;;4.28;3.53;;;;;;;19.11;100.00;101877.72;10475992;28;20036;-76
2023/09/26 16:38:48;;;;;;;6.55;3.00;;;;;;;19.11;100.00;101870.19;10485369;28;20041;-75
2023/09/26 16:43:48;;;;;;;4.55;2.67;;;;;;;19.00;100.00;101867.75;10476489;28;20175;-76
2023/09/26 16:48:49;;;;;;;4.15;3.20;;;;;;;18.83;100.00;101874.53;10481581;28;20287;-67
2023/09/26 16:53:53;;;;;;;4.25;3.05;;;;;;;18.63;100.00;101874.59;10477996;28;20052;-76
2023/09/26 16:58:54;;;;;;;5.47;3.05;;;;;;;18.38;100.00;101864.34;10477636;28;20052;-76
2023/09/26 17:03:54;;;;;;;6.15;3.05;;;;;;;18.22;100.00;101858.78;10476460;28;20603;-77
2023/09/26 17:08:55;;;;;;;5.78;3.17;;;;;;;18.03;100.00;101861.34;10479491;28;20036;-76
2023/09/26 17:13:55;;;;;;;5.25;4.45;;;;;;;17.73;100.00;101848.22;10476306;28;20196;-77
2023/09/26 17:18:56;;;;;;;6.32;4.00;;;;;;;17.55;100.00;101864.38;10478581;28;20036;-76
2023/09/26 17:23:56;;;;;;;6.07;3.92;;;;;;;17.32;100.00;101859.31;10477900;28;20037;-76
2023/09/26 17:28:57;;;;;;;8.25;4.93;;;;;;;17.05;100.00;101868.75;10479947;28;20055;-77
2023/09/26 17:33:57;;;;;;;5.10;3.83;;;;;;;16.85;100.00;101855.63;10481924;28;20040;-75
2023/09/26 17:38:58;;;;;;;6.35;4.60;;;;;;;16.69;100.00;101854.69;10477483;28;20041;-71
2023/09/26 17:43:58;;;;;;;5.50;3.85;;;;;;;16.52;100.00;101843.78;10452142;28;20041;-77
2023/09/26 17:48:59;;;;;;;5.93;4.57;;;;;;;16.39;100.00;101840.63;10432292;28;20417;-76
2023/09/26 17:54:00;;;;;;;5.32;4.00;;;;;;;16.21;100.00;101842.78;10433249;28;20040;-76
2023/09/26 17:59:01;;;;;;;7.88;4.63;;;;;;;16.05;100.00;101860.44;10433249;28;20045;-76
2023/09/26 18:04:02;;;;;;;5.55;3.83;;;;;;;15.91;100.00;101866.44;10465109;28;20049;-77
2023/09/26 18:09:03;;;;;;;7.57;4.03;;;;;;;15.85;100.00;101856.41;10458681;28;20518;-76
2023/09/26 18:14:03;;;;;;;5.97;4.50;;;;;;;15.77;100.00;101870.75;10463235;28;20060;-77
2023/09/26 18:19:04;;;;;;;7.25;4.82;;;;;;;15.68;100.00;101881.50;10459968;28;20034;-77
2023/09/26 18:24:04;;;;;;;7.53;4.03;;;;;;;15.56;100.00;101897.47;10471682;28;20037;-77
2023/09/26 18:29:05;;;;;;;5.43;4.10;;;;;;;15.45;100.00;101913.19;10463171;28;20040;-76
2023/09/26 18:34:05;;;;;;;7.13;3.97;;;;;;;15.40;100.00;101917.84;10465774;28;20434;-76
2023/09/26 18:39:06;;;;;;;8.45;4.55;;;;;;;15.34;100.00;101933.63;10486133;28;20412;-77
2023/09/26 18:44:06;;;;;;;6.63;3.83;;;;;;;15.21;100.00;101934.03;10478313;28;20047;-77
2023/09/26 18:49:07;;;;;;;8.60;4.38;;;;;;;15.11;100.00;101941.13;10476122;28;20048;-76
2023/09/26 18:54:07;;;;;;;7.97;4.28;;;;;;;15.02;100.00;101948.22;10472267;28;20049;-77
2023/09/26 18:59:08;;;;;;;6.13;4.70;;;;;;;14.92;100.00;101931.44;10462692;28;20067;-77
2023/09/26 19:04:10;;;;;;;7.03;5.57;;;;;;;14.84;100.00;101934.66;10484220;28;20040;-77
2023/09/26 19:09:10;;;;;;;7.50;5.03;;;;;;;14.75;100.00;101919.59;10484623;28;20080;-77
2023/09/26 19:14:11;;;;;;;12.35;5.40;;;;;;;14.60;100.00;101909.16;10481300;28;20047;-77
2023/09/26 19:19:11;;;;;;;7.28;5.93;;;;;;;14.55;100.00;101929.25;10480057;28;20065;-76
2023/09/26 19:24:12;;;;;;;7.40;5.38;;;;;;;14.47;100.00;101926.91;10481042;28;20032;-76
2023/09/26 19:29:13;;;;;;;8.77;6.78;;;;;;;14.38;100.00;101932.06;10476508;28;20102;-76
2023/09/26 19:34:13;;;;;;;9.93;6.82;;;;;;;14.31;100.00;101932.25;10470783;28;20065;-77
2023/09/26 19:39:14;;;;;;;9.65;7.45;;;;;;;14.27;100.00;101930.25;10468575;28;20041;-77
2023/09/26 19:44:14;;;;;;;8.85;7.75;;;;;;;14.28;100.00;101935.53;10475665;28;20037;-76
2023/09/26 19:49:15;;;;;;;12.25;7.95;;;;;;;14.31;100.00;101926.69;10487357;28;20098;-78
2023/09/26 19:54:15;;;;;;;9.25;8.00;;;;;;;14.36;100.00;101919.56;10475668;28;20033;-77
2023/09/26 19:59:16;;;;;;;10.60;8.20;;;;;;;14.33;100.00;101930.06;10480815;28;20062;-77
2023/09/26 20:04:16;;;;;;;11.02;7.25;;;;;;;14.01;100.00;101887.47;10461685;28;20032;-77
2023/09/26 20:09:17;;;;;;;9.10;7.97;;;;;;;14.25;100.00;101930.50;10451734;28;20044;-76
2023/09/26 20:14:17;;;;;;;13.27;8.23;;;;;;;14.12;100.00;101923.38;10467638;28;20095;-77
2023/09/26 20:19:18;;;;;;;9.20;7.97;;;;;;;14.17;100.00;101941.16;10477171;28;20056;-77
2023/09/26 20:24:18;;;;;;;10.70;7.93;;;;;;;14.13;100.00;101941.66;10461830;28;20037;-77
2023/09/26 20:29:19;;;;;;;12.65;8.70;;;;;;;14.17;100.00;101947.53;10472718;28;20041;-76
2023/09/26 20:34:19;;;;;;;11.73;9.10;;;;;;;14.18;100.00;101940.06;10474052;28;20032;-77
2023/09/26 20:39:20;;;;;;;11.65;9.45;;;;;;;14.17;100.00;101925.38;10470963;28;20363;-77
2023/09/26 20:44:20;;;;;;;15.95;10.07;;;;;;;14.11;100.00;101935.53;10475945;28;20529;-77
2023/09/26 20:49:21;;;;;;;17.52;11.98;;;;;;;14.08;100.00;101936.03;10451392;28;20464;-77
2023/09/26 20:54:22;;;;;;;20.27;11.50;;;;;;;14.09;100.00;101939.66;10477866;28;20033;-77
2023/09/26 20:59:24;;;;;;;12.18;9.40;;;;;;;14.05;100.00;101933.75;10456325;28;20051;-78
2023/09/26 21:04:24;;;;;;;18.98;11.52;;;;;;;13.83;100.00;101914.31;10473040;28;20040;-79
2023/09/26 21:09:26;;;;;;;16.23;11.60;;;;;;;13.90;100.00;101927.97;10475661;28;20052;-79
2023/09/26 21:14:26;;;;;;;20.80;13.02;;;;;;;13.85;100.00;101912.13;10451797;28;20048;-77
2023/09/26 21:19:27;;;;;;;18.63;12.57;;;;;;;13.56;100.00;101869.00;10449911;28;20557;-77
2023/09/26 21:24:27;;;;;;;19.67;12.30;;;;;;;13.77;100.00;101904.25;10463869;28;20040;-78
2023/09/26 21:29:28;;;;;;;18.48;12.75;;;;;;;13.62;100.00;101877.16;10462056;28;20075;-78
2023/09/26 21:34:28;;;;;;;19.23;14.00;;;;;;;13.63;100.00;101880.75;10460043;28;20039;-78
2023/09/26 21:39:29;;;;;;;20.83;15.18;;;;;;;13.57;100.00;101893.66;10469794;28;20066;-78
2023/09/26 21:44:29;;;;;;;18.42;14.35;;;;;;;13.51;100.00;101894.66;10465186;28;20043;-77
2023/09/26 21:49:30;;;;;;;23.73;16.77;;;;;;;13.47;100.00;101896.22;10479346;28;20049;-78
2023/09/26 21:54:30;;;;;;;22.73;16.13;;;;;;;13.41;100.00;101906.34;10485260;28;20048;-78
2023/09/26 21:59:31;;;;;;;22.25;15.55;;;;;;;13.10;100.00;101867.06;10485413;28;20059;-78
2023/09/26 22:04:31;;;;;;;23.02;15.15;;;;;;;13.31;100.00;101922.75;10467197;28;20041;-79
2023/09/26 22:09:32;;;;;;;22.33;16.27;;;;;;;13.27;100.00;101927.06;10485396;28;20044;-78
2023/09/26 22:14:32;;;;;;;19.88;15.43;;;;;;;13.29;100.00;101936.84;10485353;28;20048;-78
2023/09/26 22:19:33;;;;;;;21.77;16.27;;;;;;;13.32;100.00;101907.84;10489380;28;20580;-78
2023/09/26 22:24:33;;;;;;;24.45;17.45;;;;;;;13.44;100.00;101916.09;10485567;28;20587;-79
2023/09/26 22:29:34;;;;;;;27.75;19.02;;;;;;;13.45;100.00;101918.59;10484518;28;20036;-79
2023/09/26 22:34:36;;;;;;;26.23;18.83;;;;;;;13.47;100.00;101918.38;10465911;28;20106;-77